createdAt,value
2022-12-14T00:01:49.563Z,67.07
2022-12-14T00:04:17.575Z,67.58
2022-12-14T00:06:45.036Z,67.97
2022-12-14T00:09:12.418Z,69.27
2022-12-14T00:11:40.170Z,70.17
2022-12-14T00:14:07.593Z,69.66
2022-12-14T00:16:35.341Z,71.77
2022-12-14T00:19:05.280Z,73.19
2022-12-14T00:21:33.517Z,73.04
2022-12-14T00:24:00.941Z,73.19
2022-12-14T00:26:31.427Z,73.02
2022-12-14T00:29:00.582Z,73.41
2022-12-14T00:31:28.290Z,72.87
2022-12-14T00:33:55.968Z,72.76
2022-12-14T00:36:23.633Z,73.26
2022-12-14T00:38:51.048Z,74.07
2022-12-14T00:41:19.608Z,73.19
2022-12-14T00:43:49.743Z,76.35
2022-12-14T00:46:17.974Z,75.69
2022-12-14T00:48:45.895Z,75.34
2022-12-14T00:51:15.090Z,75.77
2022-12-14T00:53:44.601Z,75.29
2022-12-14T00:56:12.436Z,74.48
2022-12-14T00:58:39.799Z,76.01
2022-12-14T01:01:12.516Z,75.34
2022-12-14T01:03:40.532Z,74.70
2022-12-14T01:06:17.124Z,75.37
2022-12-14T01:08:44.826Z,76.84
2022-12-14T01:11:12.881Z,76.41
2022-12-14T01:13:41.338Z,75.57
2022-12-14T01:16:11.680Z,75.06
2022-12-14T01:18:40.110Z,74.31
2022-12-14T01:21:11.495Z,76.14
2022-12-14T01:23:39.417Z,74.63
2022-12-14T01:26:07.008Z,75.53
2022-12-14T01:28:35.112Z,74.68
2022-12-14T01:31:23.725Z,75.17
2022-12-14T01:33:51.147Z,75.75
2022-12-14T01:36:25.223Z,76.79
2022-12-14T01:38:58.323Z,77.86
2022-12-14T01:41:31.618Z,77.11
2022-12-14T01:44:09.351Z,75.97
2022-12-14T01:46:41.125Z,75.36
2022-12-14T01:49:33.017Z,75.23
2022-12-14T01:52:21.574Z,76.31
2022-12-14T01:54:56.573Z,75.93
2022-12-14T01:57:47.436Z,74.83
2022-12-14T02:00:15.270Z,74.67
2022-12-14T02:02:48.452Z,75.88
2022-12-14T02:05:17.290Z,75.46
2022-12-14T02:07:49.171Z,75.31
2022-12-14T02:10:16.733Z,75.30
2022-12-14T02:12:48.395Z,76.37
2022-12-14T02:15:16.460Z,76.81
2022-12-14T02:17:45.468Z,76.34
2022-12-14T02:20:13.885Z,75.71
2022-12-14T02:22:54.056Z,78.08
2022-12-14T02:25:33.887Z,77.57
2022-12-14T02:28:29.487Z,76.17
2022-12-14T02:31:26.345Z,74.91
2022-12-14T02:33:58.468Z,76.94
2022-12-14T02:36:39.070Z,77.36
2022-12-14T02:39:34.665Z,76.60
2022-12-14T02:42:13.648Z,76.16
2022-12-14T02:44:44.350Z,75.84
2022-12-14T02:47:26.231Z,77.07
2022-12-14T02:49:59.846Z,76.04
2022-12-14T02:52:52.287Z,77.65
2022-12-14T02:55:28.267Z,77.01
2022-12-14T02:58:01.403Z,78.74
2022-12-14T03:00:32.332Z,77.95
2022-12-14T03:03:00.837Z,77.62
2022-12-14T03:05:28.656Z,76.60
2022-12-14T03:07:58.172Z,75.71
2022-12-14T03:10:44.221Z,76.05
2022-12-14T03:13:31.432Z,78.12
2022-12-14T03:16:03.140Z,77.77
2022-12-14T03:18:36.977Z,76.95
2022-12-14T03:21:06.524Z,76.52
2022-12-14T03:23:40.800Z,75.13
2022-12-14T03:26:19.440Z,77.07
2022-12-14T03:28:50.973Z,76.02
2022-12-14T03:31:35.113Z,77.85
2022-12-14T03:34:05.329Z,79.19
2022-12-14T03:36:54.609Z,78.53
2022-12-14T03:39:27.637Z,77.19
2022-12-14T03:42:17.920Z,77.88
2022-12-14T03:44:54.384Z,77.62
2022-12-14T03:47:52.623Z,77.26
2022-12-14T03:50:51.915Z,78.99
2022-12-14T03:53:25.363Z,78.29
2022-12-14T03:56:10.953Z,76.87
2022-12-14T03:58:56.826Z,77.58
2022-12-14T04:02:04.071Z,77.21
2022-12-14T04:04:34.431Z,78.28
2022-12-14T04:07:15.215Z,78.06
2022-12-14T04:09:49.075Z,76.58
2022-12-14T04:12:38.548Z,76.97
2022-12-14T04:15:32.875Z,76.27
2022-12-14T04:18:22.928Z,75.86
2022-12-14T04:20:55.359Z,77.38
2022-12-14T04:23:49.947Z,77.55
2022-12-14T04:26:19.761Z,77.68
2022-12-14T04:29:27.249Z,78.28
2022-12-14T04:32:04.535Z,78.21
2022-12-14T04:34:33.537Z,77.73
2022-12-14T04:37:04.577Z,80.13
2022-12-14T04:39:53.651Z,78.77
2022-12-14T04:42:31.432Z,80.07
2022-12-14T04:45:06.559Z,81.40
2022-12-14T04:47:37.083Z,79.75
2022-12-14T04:50:27.286Z,79.96
2022-12-14T04:52:59.718Z,79.72
2022-12-14T04:55:30.145Z,80.46
2022-12-14T04:58:15.113Z,79.01
2022-12-14T05:00:51.780Z,79.83
2022-12-14T05:03:32.365Z,79.44
2022-12-14T05:06:09.569Z,79.92
2022-12-14T05:09:02.273Z,79.70
2022-12-14T05:11:53.690Z,78.64
2022-12-14T05:14:27.077Z,79.11
2022-12-14T05:16:54.544Z,78.98
2022-12-14T05:19:26.380Z,78.91
2022-12-14T05:21:54.428Z,78.94
2022-12-14T05:24:22.150Z,78.76
2022-12-14T05:26:49.524Z,78.90
2022-12-14T05:29:17.806Z,79.30
2022-12-14T05:31:49.457Z,78.42
2022-12-14T05:34:17.685Z,77.99
2022-12-14T05:36:45.327Z,77.92
2022-12-14T05:39:13.270Z,77.17
2022-12-14T05:41:40.727Z,77.74
2022-12-14T05:44:08.654Z,77.42
2022-12-14T05:46:36.049Z,76.86
2022-12-14T05:49:03.582Z,77.04
2022-12-14T05:51:31.232Z,78.07
2022-12-14T05:53:59.054Z,77.26
2022-12-14T05:56:26.534Z,77.82
2022-12-14T05:58:54.472Z,78.60
2022-12-14T06:01:21.992Z,79.26
2022-12-14T06:03:53.497Z,77.87
2022-12-14T06:06:21.343Z,78.64
2022-12-14T06:08:48.902Z,79.04
2022-12-14T06:11:19.199Z,78.04
2022-12-14T06:13:47.315Z,76.46
2022-12-14T06:16:23.093Z,77.94
2022-12-14T06:18:56.104Z,76.03
2022-12-14T06:21:27.470Z,77.72
2022-12-14T06:23:56.057Z,77.92
2022-12-14T06:26:24.112Z,76.39
2022-12-14T06:28:51.573Z,77.55
2022-12-14T06:31:21.781Z,75.71
2022-12-14T06:33:49.931Z,76.68
2022-12-14T06:36:21.252Z,75.04
2022-12-14T06:38:50.087Z,76.75
2022-12-14T06:41:17.764Z,76.26
2022-12-14T06:43:45.259Z,77.34
2022-12-14T06:46:19.462Z,77.12
2022-12-14T06:48:54.843Z,76.92
2022-12-14T06:51:23.776Z,75.79
2022-12-14T06:53:52.179Z,76.27
2022-12-14T06:56:20.577Z,75.67
2022-12-14T06:58:48.356Z,76.72
2022-12-14T07:01:18.541Z,76.16
2022-12-14T07:03:54.820Z,74.08
2022-12-14T07:06:23.923Z,76.09
2022-12-14T07:08:56.356Z,76.40
2022-12-14T07:11:25.185Z,76.65
2022-12-14T07:13:53.545Z,75.01
2022-12-14T07:16:23.712Z,76.08
2022-12-14T07:18:52.040Z,75.08
2022-12-14T07:21:20.655Z,75.62
2022-12-14T07:23:48.749Z,75.14
2022-12-14T07:26:19.864Z,74.89
2022-12-14T07:28:47.625Z,76.05
2022-12-14T07:31:17.503Z,74.96
2022-12-14T07:33:45.731Z,76.20
2022-12-14T07:36:15.920Z,76.47
2022-12-14T07:38:44.585Z,75.61
2022-12-14T07:41:20.399Z,76.74
2022-12-14T07:43:49.923Z,76.46
2022-12-14T07:46:20.602Z,75.15
2022-12-14T07:48:50.550Z,75.17
2022-12-14T07:51:20.671Z,76.21
2022-12-14T07:53:48.885Z,75.58
2022-12-14T07:56:18.864Z,77.61
2022-12-14T07:58:46.807Z,77.65
2022-12-14T08:01:19.862Z,77.31
2022-12-14T08:03:59.926Z,77.49
2022-12-14T08:06:29.381Z,76.11
2022-12-14T08:08:57.685Z,75.89
2022-12-14T08:11:25.437Z,75.69
2022-12-14T08:13:56.782Z,76.43
2022-12-14T08:16:25.556Z,76.63
2022-12-14T08:18:54.419Z,76.76
2022-12-14T08:21:23.118Z,76.95
2022-12-14T08:23:51.529Z,76.63
2022-12-14T08:26:19.441Z,75.30
2022-12-14T08:28:47.671Z,75.27
2022-12-14T08:31:20.515Z,76.27
2022-12-14T08:33:48.851Z,76.15
2022-12-14T08:36:22.361Z,76.56
2022-12-14T08:38:57.958Z,75.94
2022-12-14T08:41:26.734Z,76.18
2022-12-14T08:43:56.857Z,73.91
2022-12-14T08:46:25.308Z,74.36
2022-12-14T08:48:55.003Z,74.08
2022-12-14T08:51:24.241Z,73.82
2022-12-14T08:53:52.393Z,73.41
2022-12-14T08:56:25.548Z,74.56
2022-12-14T08:58:53.533Z,74.30
2022-12-14T09:01:32.046Z,73.36
2022-12-14T09:04:08.389Z,72.49
2022-12-14T09:06:38.816Z,73.88
2022-12-14T09:09:13.308Z,72.31
2022-12-14T09:11:44.617Z,71.64
2022-12-14T09:14:12.088Z,72.55
2022-12-14T09:16:40.354Z,74.19
2022-12-14T09:19:08.236Z,72.65
2022-12-14T09:21:35.639Z,73.64
2022-12-14T09:24:03.159Z,72.13
2022-12-14T09:26:30.835Z,73.10
2022-12-14T09:28:58.267Z,70.99
2022-12-14T09:31:26.811Z,72.33
2022-12-14T09:33:55.125Z,72.32
2022-12-14T09:36:25.378Z,72.43
2022-12-14T09:38:55.369Z,73.45
2022-12-14T09:41:30.244Z,73.72
2022-12-14T09:44:25.365Z,72.95
2022-12-14T09:47:11.178Z,73.97
2022-12-14T09:49:54.828Z,71.69
2022-12-14T09:52:46.577Z,72.43
2022-12-14T09:55:45.695Z,71.82
2022-12-14T09:58:18.645Z,72.21
2022-12-14T10:01:05.579Z,73.19
2022-12-14T10:03:59.325Z,71.57
2022-12-14T10:06:39.563Z,71.18
2022-12-14T10:09:10.221Z,69.61
2022-12-14T10:11:55.822Z,70.14
2022-12-14T10:14:44.567Z,70.05
2022-12-14T10:17:17.846Z,69.19
2022-12-14T10:19:56.241Z,68.39
2022-12-14T10:22:30.647Z,69.31
2022-12-14T10:24:58.316Z,69.07
2022-12-14T10:27:34.168Z,70.86
2022-12-14T10:30:17.454Z,69.57
2022-12-14T10:32:49.296Z,68.61
2022-12-14T10:35:27.431Z,68.33
2022-12-14T10:38:12.485Z,69.03
2022-12-14T10:40:41.728Z,69.53
2022-12-14T10:43:50.823Z,71.03
2022-12-14T10:46:23.752Z,69.57
2022-12-14T10:49:10.868Z,67.93
2022-12-14T10:51:48.992Z,67.98
2022-12-14T10:54:27.246Z,69.08
2022-12-14T10:56:55.349Z,70.99
2022-12-14T10:59:25.368Z,68.94
2022-12-14T11:01:59.304Z,69.26
2022-12-14T11:04:33.084Z,68.78
2022-12-14T11:07:03.813Z,68.12
2022-12-14T11:09:32.007Z,67.48
2022-12-14T11:12:05.476Z,68.11
2022-12-14T11:14:34.529Z,67.79
2022-12-14T11:17:02.082Z,68.21
2022-12-14T11:19:30.048Z,67.00
2022-12-14T11:22:18.675Z,67.79
2022-12-14T11:24:49.578Z,68.40
2022-12-14T11:27:21.026Z,68.97
2022-12-14T11:29:49.430Z,68.42
2022-12-14T11:32:24.743Z,67.40
2022-12-14T11:34:55.507Z,68.19
2022-12-14T11:37:26.323Z,66.73
2022-12-14T11:39:59.385Z,66.70
2022-12-14T11:42:27.368Z,66.54
2022-12-14T11:44:55.087Z,63.98
2022-12-14T11:47:24.080Z,64.01
2022-12-14T11:49:54.473Z,65.02
2022-12-14T11:52:23.272Z,65.85
2022-12-14T11:54:54.329Z,65.62
2022-12-14T11:57:48.174Z,66.63
2022-12-14T12:00:25.732Z,66.06
2022-12-14T12:03:06.661Z,66.44
2022-12-14T12:05:39.617Z,65.39
2022-12-14T12:08:19.219Z,67.24
2022-12-14T12:10:50.115Z,65.93
2022-12-14T12:13:20.867Z,68.25
2022-12-14T12:15:51.248Z,65.96
2022-12-14T12:18:26.540Z,65.98
2022-12-14T12:21:02.168Z,64.63
2022-12-14T12:23:40.892Z,67.75
2022-12-14T12:26:25.067Z,66.95
2022-12-14T12:29:02.376Z,67.51
2022-12-14T12:31:34.862Z,68.07
2022-12-14T12:34:06.392Z,68.28
2022-12-14T12:36:33.787Z,67.29
2022-12-14T12:39:05.905Z,68.34
2022-12-14T12:41:40.568Z,67.73
2022-12-14T12:44:35.855Z,69.06
2022-12-14T12:47:31.203Z,67.93
2022-12-14T12:50:06.563Z,67.32
2022-12-14T12:52:38.585Z,66.20
2022-12-14T12:55:15.184Z,67.02
2022-12-14T12:57:46.225Z,66.63
2022-12-14T13:00:17.362Z,66.75
2022-12-14T13:02:55.398Z,66.18
2022-12-14T13:08:33.811Z,67.18
2022-12-14T13:14:15.252Z,66.02
2022-12-14T13:16:43.197Z,65.50
2022-12-14T13:22:31.515Z,66.34
2022-12-14T13:25:18.248Z,65.05
2022-12-14T13:28:01.184Z,65.87
2022-12-14T13:30:39.778Z,65.36
2022-12-14T13:33:28.702Z,64.47
2022-12-14T13:36:21.212Z,64.74
2022-12-14T13:39:19.388Z,65.05
2022-12-14T13:42:05.771Z,66.59
2022-12-14T13:44:46.491Z,66.34
2022-12-14T13:47:21.821Z,64.38
2022-12-14T13:50:26.712Z,65.15
2022-12-14T13:52:45.079Z,62.88
2022-12-14T13:55:28.989Z,65.01
2022-12-14T13:58:15.597Z,66.76
2022-12-14T14:00:46.576Z,65.87
2022-12-14T14:03:36.475Z,66.18
2022-12-14T14:06:13.037Z,67.40
2022-12-14T14:08:42.800Z,66.59
2022-12-14T14:11:38.638Z,65.35
2022-12-14T14:14:12.413Z,66.80
2022-12-14T14:16:44.994Z,68.23
2022-12-14T14:19:24.108Z,67.98
2022-12-14T14:22:26.008Z,66.95
2022-12-14T14:25:34.907Z,67.06
2022-12-14T14:28:03.961Z,67.42
2022-12-14T14:30:36.177Z,67.50
2022-12-14T14:33:43.107Z,67.67
2022-12-14T14:35:51.776Z,67.06
2022-12-14T14:38:31.360Z,67.61
2022-12-14T14:41:17.680Z,69.59
2022-12-14T14:43:54.467Z,67.88
2022-12-14T14:46:34.149Z,68.46
2022-12-14T14:49:01.635Z,68.14
2022-12-14T14:51:31.027Z,69.37
2022-12-14T14:54:46.135Z,70.03
2022-12-14T14:57:36.059Z,70.30
2022-12-14T15:00:05.134Z,69.73
2022-12-14T15:02:40.134Z,70.72
2022-12-14T15:08:32.726Z,69.46
2022-12-14T15:11:04.827Z,69.89
2022-12-14T15:13:44.185Z,70.55
2022-12-14T15:16:41.228Z,69.55
2022-12-14T15:19:25.642Z,68.79
2022-12-14T15:22:13.777Z,69.06
2022-12-14T15:24:43.544Z,68.58
2022-12-14T15:27:26.416Z,70.61
2022-12-14T15:30:12.439Z,69.49
2022-12-14T15:32:47.448Z,69.83
2022-12-14T15:35:18.079Z,68.73
2022-12-14T15:37:58.024Z,67.57
2022-12-14T15:40:32.316Z,69.08
2022-12-14T15:43:16.117Z,70.24
2022-12-14T15:45:46.188Z,69.99
2022-12-14T15:48:27.690Z,68.68
2022-12-14T15:51:03.043Z,68.74
2022-12-14T15:53:34.420Z,69.48
2022-12-14T15:56:11.825Z,71.17
2022-12-14T15:58:40.877Z,69.60
2022-12-14T16:01:24.906Z,69.23
2022-12-14T16:03:54.686Z,67.63
2022-12-14T16:06:23.572Z,68.80
2022-12-14T16:09:04.246Z,67.33
2022-12-14T16:11:36.022Z,68.96
2022-12-14T16:14:09.817Z,67.18
2022-12-14T16:16:37.669Z,68.50
2022-12-14T16:19:25.858Z,68.75
2022-12-14T16:22:10.139Z,69.65
2022-12-14T16:24:38.510Z,71.04
2022-12-14T16:27:17.900Z,69.20
2022-12-14T16:30:16.911Z,69.29
2022-12-14T16:32:49.838Z,71.51
2022-12-14T16:35:20.134Z,71.98
2022-12-14T16:37:51.285Z,71.07
2022-12-14T16:40:33.784Z,71.49
2022-12-14T16:43:02.348Z,71.81
2022-12-14T16:45:36.120Z,72.57
2022-12-14T16:48:09.147Z,70.29
2022-12-14T16:53:29.579Z,70.00
2022-12-14T16:56:19.620Z,70.14
2022-12-14T16:59:03.619Z,69.39
2022-12-14T17:01:42.044Z,66.92
2022-12-14T17:04:11.523Z,66.56
2022-12-14T17:06:54.298Z,67.76
2022-12-14T17:09:24.981Z,70.10
2022-12-14T17:11:54.632Z,69.23
2022-12-14T17:14:23.924Z,69.33
2022-12-14T17:17:00.653Z,68.91
2022-12-14T17:19:34.722Z,70.52
2022-12-14T17:22:04.432Z,69.82
2022-12-14T17:24:33.394Z,71.46
2022-12-14T17:27:02.400Z,71.26
2022-12-14T17:29:31.272Z,71.17
2022-12-14T17:32:02.851Z,70.06
2022-12-14T17:34:31.049Z,70.77
2022-12-14T17:37:03.239Z,70.62
2022-12-14T17:39:35.715Z,70.26
2022-12-14T17:42:06.470Z,68.36
2022-12-14T17:44:34.985Z,67.63
2022-12-14T17:47:04.015Z,67.17
2022-12-14T17:49:36.396Z,69.20
2022-12-14T17:52:07.735Z,67.38
2022-12-14T17:54:36.018Z,69.20
2022-12-14T17:57:07.394Z,68.82
2022-12-14T17:59:35.316Z,68.32
2022-12-14T18:02:03.135Z,68.61
2022-12-14T18:04:34.674Z,70.56
2022-12-14T18:07:03.731Z,70.15
2022-12-14T18:09:32.350Z,69.61
2022-12-14T18:12:22.601Z,68.96
2022-12-14T18:14:52.446Z,72.32
2022-12-14T18:17:20.489Z,68.85
2022-12-14T18:19:50.227Z,68.51
2022-12-14T18:22:19.106Z,70.06
2022-12-14T18:24:49.152Z,70.35
2022-12-14T18:27:19.200Z,70.98
2022-12-14T18:29:47.706Z,68.64
2022-12-14T18:32:16.610Z,68.86
2022-12-14T18:34:46.814Z,68.69
2022-12-14T18:37:18.710Z,70.06
2022-12-14T18:39:51.360Z,69.40
2022-12-14T18:42:22.620Z,69.15
2022-12-14T18:44:53.469Z,68.13
2022-12-14T18:47:41.052Z,69.08
2022-12-14T18:50:14.811Z,67.77
2022-12-14T18:52:45.401Z,69.26
2022-12-14T18:55:18.913Z,70.41
2022-12-14T18:57:49.495Z,69.81
2022-12-14T19:00:21.215Z,69.01
2022-12-14T19:02:50.526Z,70.61
2022-12-14T19:05:26.109Z,68.22
2022-12-14T19:08:00.454Z,69.67
2022-12-14T19:10:31.789Z,68.74
2022-12-14T19:13:01.277Z,69.92
2022-12-14T19:15:33.399Z,68.98
2022-12-14T19:18:05.337Z,69.13
2022-12-14T19:20:34.653Z,70.09
2022-12-14T19:23:05.593Z,70.36
2022-12-14T19:25:35.296Z,69.97
2022-12-14T19:30:58.653Z,68.32
2022-12-14T19:33:30.521Z,70.02
2022-12-14T19:36:00.925Z,67.83
2022-12-14T19:38:32.384Z,67.03
2022-12-14T19:41:04.691Z,66.11
2022-12-14T19:43:35.063Z,67.54
2022-12-14T19:46:14.831Z,68.82
2022-12-14T19:48:45.285Z,69.15
2022-12-14T19:51:15.883Z,68.79
2022-12-14T19:53:48.849Z,69.19
2022-12-14T19:56:19.281Z,69.21
2022-12-14T19:58:54.130Z,70.01
2022-12-14T20:01:40.727Z,69.36
2022-12-14T20:04:20.233Z,70.16
2022-12-14T20:06:52.297Z,69.04
2022-12-14T20:09:25.179Z,70.61
2022-12-14T20:11:54.239Z,70.41
2022-12-14T20:14:23.757Z,71.22
2022-12-14T20:16:53.078Z,71.36
2022-12-14T20:19:25.801Z,71.61
2022-12-14T20:21:55.200Z,70.29
2022-12-14T20:24:23.719Z,68.79
2022-12-14T20:26:55.041Z,70.37
2022-12-14T20:29:25.031Z,71.51
2022-12-14T20:31:55.870Z,71.41
2022-12-14T20:34:29.672Z,71.47
2022-12-14T20:36:59.511Z,69.82
2022-12-14T20:39:28.893Z,70.08
2022-12-14T20:41:58.234Z,70.22
2022-12-14T20:44:27.033Z,68.86
2022-12-14T20:46:57.313Z,68.85
2022-12-14T20:49:31.594Z,68.07
2022-12-14T20:52:00.672Z,69.23
2022-12-14T20:54:29.982Z,68.20
2022-12-14T20:57:01.177Z,69.90
2022-12-14T20:59:30.182Z,68.11
2022-12-14T21:01:59.074Z,70.38
2022-12-14T21:04:29.861Z,69.83
2022-12-14T21:06:58.552Z,68.66
2022-12-14T21:09:27.015Z,68.17
2022-12-14T21:12:13.641Z,68.03
2022-12-14T21:14:48.117Z,69.47
2022-12-14T21:17:16.657Z,71.67
2022-12-14T21:19:44.803Z,70.81
2022-12-14T21:22:16.749Z,70.58
2022-12-14T21:25:03.134Z,70.36
2022-12-14T21:27:33.463Z,68.71
2022-12-14T21:30:01.880Z,68.83
2022-12-14T21:32:31.192Z,70.10
2022-12-14T21:34:58.680Z,70.73
2022-12-14T21:37:27.639Z,70.36
2022-12-14T21:39:55.899Z,69.29
2022-12-14T21:42:24.434Z,70.58
2022-12-14T21:44:52.963Z,69.90
2022-12-14T21:47:28.381Z,69.19
2022-12-14T21:49:56.459Z,69.58
2022-12-14T21:52:26.327Z,69.97
2022-12-14T21:54:53.745Z,69.10
2022-12-14T21:57:42.031Z,69.02
2022-12-14T22:00:10.547Z,68.25
2022-12-14T22:02:39.720Z,70.08
2022-12-14T22:05:07.930Z,70.54
2022-12-14T22:07:35.289Z,70.58
2022-12-14T22:10:03.018Z,71.08
2022-12-14T22:12:30.646Z,69.66
2022-12-14T22:14:58.031Z,68.52
2022-12-14T22:17:25.444Z,68.56
2022-12-14T22:19:55.069Z,67.64
2022-12-14T22:22:22.800Z,67.31
2022-12-14T22:24:51.367Z,67.94
2022-12-14T22:27:19.855Z,68.12
2022-12-14T22:29:47.293Z,68.20
2022-12-14T22:32:15.605Z,68.10
2022-12-14T22:34:43.407Z,67.26
2022-12-14T22:37:14.562Z,66.98
2022-12-14T22:39:42.027Z,67.32
2022-12-14T22:42:10.530Z,65.76
2022-12-14T22:44:38.301Z,66.39
2022-12-14T22:47:05.760Z,66.80
2022-12-14T22:49:33.392Z,65.70
2022-12-14T22:52:00.765Z,67.11
2022-12-14T22:54:28.143Z,68.79
2022-12-14T22:57:13.852Z,67.43
2022-12-14T22:59:45.283Z,67.83
2022-12-14T23:02:13.107Z,66.24
2022-12-14T23:04:40.719Z,66.76
2022-12-14T23:07:08.068Z,68.55
2022-12-14T23:09:54.426Z,67.50
2022-12-14T23:12:40.778Z,67.59
2022-12-14T23:15:27.239Z,68.78
2022-12-14T23:18:19.171Z,67.93
2022-12-14T23:21:05.531Z,66.74
2022-12-14T23:23:51.326Z,67.77
2022-12-14T23:26:37.777Z,68.03
2022-12-14T23:29:23.603Z,68.16
2022-12-14T23:32:09.540Z,68.98
2022-12-14T23:34:55.692Z,69.70
2022-12-14T23:37:42.072Z,71.46
2022-12-14T23:40:28.631Z,70.44
2022-12-14T23:43:14.812Z,71.76
2022-12-14T23:46:01.791Z,69.39
2022-12-14T23:48:47.906Z,68.62
2022-12-14T23:51:34.021Z,67.93
2022-12-14T23:54:20.295Z,68.18
2022-12-14T23:57:06.350Z,68.89
2022-12-14T23:59:54.802Z,69.11
